Time;durP1;ratioP1;P1;durP2;ratioP2;P2;SDS_P1;SDS_P2;PMS_P1;PMS_P2;Temp;Humidity;BMP_temperature;BMP_pressure;BME280_temperature;BME280_humidity;BME280_pressure;Samples;Min_cycle;Max_cycle;Signal;HPM_P1;HPM_P2
2021/01/16 00:00:35;;;;;;;1.87;1.77;;;1.80;99.90;;;;;;4964770;28;20346;-94
2021/01/16 00:03:02;;;;;;;2.07;1.90;;;1.80;99.90;;;;;;4965509;28;20216;-94
2021/01/16 00:05:29;;;;;;;2.90;2.60;;;1.80;99.90;;;;;;4967005;28;20452;-94
2021/01/16 00:08:06;;;;;;;3.90;3.13;;;1.80;99.90;;;;;;4947552;28;20802;-95
2021/01/16 00:10:34;;;;;;;3.43;3.13;;;1.80;99.90;;;;;;4966503;28;20216;-94
2021/01/16 00:13:00;;;;;;;4.63;2.87;;;1.80;99.90;;;;;;4964750;28;20587;-95
2021/01/16 00:15:27;;;;;;;2.30;2.20;;;1.80;99.90;;;;;;4965240;28;20235;-95
2021/01/16 00:18:06;;;;;;;2.37;2.10;;;1.80;99.90;;;;;;4964844;28;20275;-94
2021/01/16 00:20:33;;;;;;;3.90;3.37;;;1.80;99.90;;;;;;4963976;28;20220;-94
2021/01/16 00:22:59;;;;;;;3.17;2.97;;;1.80;99.90;;;;;;4978629;28;20207;-94
2021/01/16 00:25:26;;;;;;;3.57;3.00;;;1.80;99.90;;;;;;4933620;28;20189;-94
2021/01/16 00:27:52;;;;;;;2.77;1.30;;;1.90;99.90;;;;;;4965079;28;20216;-93
2021/01/16 00:30:20;;;;;;;3.30;2.17;;;1.90;99.90;;;;;;4965171;28;20231;-94
2021/01/16 00:32:46;;;;;;;4.33;3.83;;;1.90;99.90;;;;;;4963847;28;20304;-94
2021/01/16 00:35:15;;;;;;;2.33;1.97;;;1.90;99.90;;;;;;4964131;28;20719;-94
2021/01/16 00:37:43;;;;;;;3.93;2.53;;;1.90;99.90;;;;;;4965946;28;20614;-94
2021/01/16 00:40:11;;;;;;;1.97;1.33;;;1.90;99.90;;;;;;4979853;28;20268;-93
2021/01/16 00:42:45;;;;;;;2.43;1.90;;;1.90;99.90;;;;;;4963235;28;20221;-93
2021/01/16 00:45:13;;;;;;;1.70;1.67;;;1.90;99.90;;;;;;4948064;28;20217;-94
2021/01/16 00:47:40;;;;;;;2.83;1.90;;;1.90;99.90;;;;;;4947897;28;20240;-95
2021/01/16 00:50:08;;;;;;;4.23;2.03;;;2.00;99.90;;;;;;4980434;28;20205;-93
2021/01/16 00:52:34;;;;;;;11.93;2.20;;;1.90;99.90;;;;;;4965107;28;20185;-94
2021/01/16 00:55:00;;;;;;;2.07;1.87;;;1.90;99.90;;;;;;4963891;28;20216;-94
2021/01/16 00:57:27;;;;;;;2.60;2.40;;;1.90;99.90;;;;;;4965281;28;20229;-94
2021/01/16 00:59:53;;;;;;;4.93;3.03;;;1.90;99.90;;;;;;4964173;28;20220;-94
2021/01/16 01:02:19;;;;;;;2.93;2.43;;;2.00;99.90;;;;;;4962758;28;20232;-95
2021/01/16 01:04:45;;;;;;;3.80;1.90;;;2.00;99.90;;;;;;4964879;28;20568;-94
2021/01/16 01:07:12;;;;;;;3.07;2.17;;;2.00;99.90;;;;;;4964451;28;20677;-94
2021/01/16 01:09:39;;;;;;;2.30;2.17;;;2.00;99.90;;;;;;4964222;28;20689;-93
2021/01/16 01:12:06;;;;;;;2.00;1.73;;;2.00;99.90;;;;;;4926126;28;20372;-93
2021/01/16 01:14:32;;;;;;;4.40;3.20;;;2.10;99.90;;;;;;4947347;28;20216;-92
2021/01/16 01:16:57;;;;;;;2.93;2.60;;;2.10;99.90;;;;;;4948087;28;20239;-94
2021/01/16 01:19:23;;;;;;;2.93;2.27;;;2.10;99.90;;;;;;4963866;28;20224;-94
2021/01/16 01:21:49;;;;;;;1.20;1.17;;;2.10;99.90;;;;;;4963882;28;20223;-94
2021/01/16 01:24:15;;;;;;;6.70;2.50;;;2.20;99.90;;;;;;4961698;28;20225;-93
2021/01/16 01:26:41;;;;;;;2.60;1.83;;;2.10;99.90;;;;;;4979520;28;20593;-94
2021/01/16 01:29:07;;;;;;;2.37;2.13;;;2.20;99.90;;;;;;4980154;28;20305;-92
2021/01/16 01:31:36;;;;;;;5.67;2.10;;;2.20;99.90;;;;;;4965204;28;20184;-92
2021/01/16 01:34:03;;;;;;;2.00;1.90;;;2.20;99.90;;;;;;4930554;28;20300;-92
2021/01/16 01:36:29;;;;;;;3.17;2.23;;;2.20;99.90;;;;;;4963801;28;20643;-93
2021/01/16 01:38:55;;;;;;;1.50;1.40;;;2.20;99.90;;;;;;4979765;28;20311;-93
2021/01/16 01:41:20;;;;;;;2.07;1.97;;;2.20;99.90;;;;;;4948041;28;20250;-94
2021/01/16 01:43:48;;;;;;;2.97;2.70;;;2.20;99.90;;;;;;4964411;28;20264;-92
2021/01/16 01:46:14;;;;;;;3.23;2.10;;;2.20;99.90;;;;;;4964871;28;20244;-93
2021/01/16 01:48:40;;;;;;;3.57;1.60;;;2.20;99.90;;;;;;4964446;28;20223;-93
2021/01/16 01:51:06;;;;;;;2.73;2.53;;;2.30;99.90;;;;;;4947222;28;20582;-93
2021/01/16 01:53:33;;;;;;;3.33;2.10;;;2.30;99.90;;;;;;4963531;28;20228;-92
2021/01/16 01:56:01;;;;;;;3.67;1.67;;;2.30;99.90;;;;;;4963416;28;20212;-93
2021/01/16 01:58:29;;;;;;;2.87;2.67;;;2.30;99.90;;;;;;4964277;28;20213;-94
2021/01/16 02:00:56;;;;;;;3.27;2.00;;;2.30;99.90;;;;;;4962770;28;20224;-93
2021/01/16 02:03:25;;;;;;;1.90;1.73;;;2.30;99.90;;;;;;4946603;28;20607;-93
2021/01/16 02:05:55;;;;;;;5.00;2.00;;;2.30;99.90;;;;;;4964247;28;20226;-92
2021/01/16 02:08:21;;;;;;;1.70;1.50;;;2.40;99.90;;;;;;4963317;28;20256;-93
2021/01/16 02:10:47;;;;;;;2.00;1.80;;;2.40;99.90;;;;;;4980481;28;20240;-91
2021/01/16 02:13:14;;;;;;;2.47;1.30;;;2.40;99.90;;;;;;4964563;28;20224;-91
2021/01/16 02:16:03;;;;;;;2.80;2.27;;;2.40;99.90;;;;;;4961992;28;20223;-92
2021/01/16 02:18:32;;;;;;;0.70;0.70;;;2.40;99.90;;;;;;4978950;28;20240;-93
2021/01/16 02:21:00;;;;;;;2.00;1.20;;;2.40;99.90;;;;;;4963908;28;20782;-94
2021/01/16 02:23:29;;;;;;;2.23;2.03;;;2.40;99.90;;;;;;4961326;28;20295;-94
2021/01/16 02:25:57;;;;;;;1.87;1.27;;;2.40;99.90;;;;;;4978525;28;20193;-92
2021/01/16 02:28:30;;;;;;;3.83;2.23;;;2.50;99.90;;;;;;4963591;28;20193;-93
2021/01/16 02:30:56;;;;;;;1.07;0.70;;;2.50;99.90;;;;;;4962670;28;20216;-93
2021/01/16 02:33:25;;;;;;;3.00;1.83;;;2.50;99.90;;;;;;4961493;28;20224;-93
2021/01/16 02:36:13;;;;;;;3.40;1.80;;;2.50;99.90;;;;;;4962016;28;20216;-93
2021/01/16 02:39:03;;;;;;;2.17;1.97;;;2.50;99.90;;;;;;4962067;28;20906;-93
2021/01/16 02:42:01;;;;;;;0.90;0.90;;;2.50;99.90;;;;;;4961789;28;20279;-94
2021/01/16 02:44:37;;;;;;;2.97;2.63;;;2.50;99.90;;;;;;4962140;28;20227;-93
2021/01/16 02:47:27;;;;;;;1.07;1.00;;;2.50;99.90;;;;;;4951977;28;20906;-94
2021/01/16 02:50:03;;;;;;;0.60;0.60;;;2.50;99.90;;;;;;4943352;28;20201;-90
2021/01/16 02:52:34;;;;;;;3.23;2.87;;;2.60;99.90;;;;;;4944686;28;20244;-94
2021/01/16 02:55:01;;;;;;;1.77;1.67;;;2.60;99.90;;;;;;4943441;28;20228;-94
2021/01/16 02:57:27;;;;;;;1.73;1.63;;;2.60;99.90;;;;;;4943343;28;20237;-92
2021/01/16 02:59:52;;;;;;;1.27;1.23;;;2.60;99.90;;;;;;4927697;28;20228;-94
2021/01/16 03:02:18;;;;;;;1.73;1.63;;;2.60;99.90;;;;;;4926975;28;20280;-94
2021/01/16 03:04:45;;;;;;;1.97;1.80;;;2.60;99.90;;;;;;4944258;28;20205;-94
2021/01/16 03:07:13;;;;;;;2.07;1.60;;;2.60;99.90;;;;;;4944034;28;20228;-94
2021/01/16 03:09:40;;;;;;;1.80;1.70;;;2.50;99.90;;;;;;4942422;28;20309;-94
2021/01/16 03:12:08;;;;;;;2.47;1.63;;;2.50;99.90;;;;;;4927163;28;20443;-94
2021/01/16 03:14:40;;;;;;;1.40;1.30;;;2.50;99.90;;;;;;4958010;28;20254;-92
2021/01/16 03:17:09;;;;;;;2.00;1.87;;;2.50;99.90;;;;;;4942522;28;20193;-95
2021/01/16 03:19:37;;;;;;;3.40;1.50;;;2.50;99.90;;;;;;4943855;28;20970;-94
2021/01/16 03:22:16;;;;;;;1.93;1.50;;;2.50;99.90;;;;;;4958509;28;20256;-93
2021/01/16 03:24:41;;;;;;;1.50;0.83;;;2.50;99.90;;;;;;4926760;28;20221;-93
2021/01/16 03:27:07;;;;;;;1.57;1.20;;;2.50;99.90;;;;;;4926207;29;20976;-94
2021/01/16 03:29:33;;;;;;;1.17;1.17;;;2.40;99.90;;;;;;4942405;28;20286;-92
2021/01/16 03:31:58;;;;;;;2.20;2.00;;;2.50;99.90;;;;;;4942458;28;20209;-94
2021/01/16 03:34:24;;;;;;;1.93;1.63;;;2.40;99.90;;;;;;4944012;28;20204;-93
2021/01/16 03:36:50;;;;;;;1.43;1.33;;;2.50;99.90;;;;;;4942828;28;20220;-94
2021/01/16 03:39:16;;;;;;;1.57;1.47;;;2.50;99.90;;;;;;4943027;28;20244;-93
2021/01/16 03:41:41;;;;;;;3.47;2.03;;;2.50;99.90;;;;;;4927186;28;20283;-90
2021/01/16 03:44:07;;;;;;;1.80;0.83;;;2.50;99.90;;;;;;4927595;28;20197;-93
2021/01/16 03:46:33;;;;;;;1.80;1.57;;;2.50;99.90;;;;;;4928026;29;20725;-93
2021/01/16 03:48:58;;;;;;;2.27;1.87;;;2.50;99.90;;;;;;4939741;29;20722;-93
2021/01/16 03:51:24;;;;;;;1.37;1.30;;;2.50;99.90;;;;;;4939830;29;20228;-91
2021/01/16 03:53:50;;;;;;;1.17;1.07;;;2.50;99.90;;;;;;4941857;29;20748;-93
2021/01/16 03:56:16;;;;;;;2.10;1.90;;;2.40;99.90;;;;;;4925435;28;20213;-93
2021/01/16 03:58:41;;;;;;;2.27;2.10;;;2.40;99.90;;;;;;4939916;29;20262;-92
2021/01/16 04:01:07;;;;;;;2.37;1.90;;;2.40;99.90;;;;;;4938125;29;20225;-93
2021/01/16 04:03:33;;;;;;;2.10;0.77;;;2.50;99.90;;;;;;4920629;29;20584;-93
2021/01/16 04:05:58;;;;;;;1.37;1.20;;;2.50;99.90;;;;;;4937566;28;20220;-93
2021/01/16 04:08:24;;;;;;;1.17;1.03;;;2.50;99.90;;;;;;4921606;29;20227;-92
2021/01/16 04:10:50;;;;;;;1.50;1.43;;;2.60;99.90;;;;;;4922723;29;20984;-92
2021/01/16 04:13:16;;;;;;;1.77;1.67;;;2.60;99.90;;;;;;4937308;28;20225;-92
2021/01/16 04:15:41;;;;;;;1.90;1.43;;;2.60;99.90;;;;;;4936840;29;20221;-92
2021/01/16 04:18:07;;;;;;;2.93;1.47;;;2.60;99.90;;;;;;4921860;29;20397;-92
2021/01/16 04:20:33;;;;;;;1.27;1.27;;;2.70;99.90;;;;;;4920604;29;20678;-92
2021/01/16 04:22:59;;;;;;;2.10;1.93;;;2.60;99.90;;;;;;4935527;28;20800;-93
2021/01/16 04:25:24;;;;;;;6.07;2.13;;;2.70;99.90;;;;;;4922291;29;20197;-93
2021/01/16 04:27:50;;;;;;;1.17;0.83;;;2.60;99.90;;;;;;4936356;29;20221;-92
2021/01/16 04:30:16;;;;;;;0.80;0.67;;;2.70;99.90;;;;;;4937186;28;20221;-93
2021/01/16 04:32:42;;;;;;;1.57;1.47;;;2.70;99.90;;;;;;4921576;28;20225;-93
2021/01/16 04:35:08;;;;;;;0.90;0.90;;;2.70;99.90;;;;;;4938003;28;20208;-92
2021/01/16 04:37:34;;;;;;;1.50;1.10;;;2.70;99.90;;;;;;4940116;28;20251;-93
2021/01/16 04:40:00;;;;;;;3.17;1.13;;;2.80;99.90;;;;;;4956140;28;20678;-92
2021/01/16 04:42:26;;;;;;;0.47;0.47;;;2.70;99.90;;;;;;4907970;29;20300;-92
2021/01/16 04:44:56;;;;;;;1.03;0.90;;;2.60;99.90;;;;;;4899784;29;20217;-91
2021/01/16 04:47:28;;;;;;;0.90;0.90;;;2.30;99.90;;;;;;4958130;28;20277;-92
2021/01/16 04:49:58;;;;;;;1.00;1.00;;;2.10;99.90;;;;;;4943092;28;20198;-92
2021/01/16 04:52:27;;;;;;;0.90;0.90;;;2.00;99.90;;;;;;4946163;28;20193;-92
2021/01/16 04:54:54;;;;;;;2.30;2.10;;;2.10;99.90;;;;;;4927647;29;20209;-92
2021/01/16 04:57:23;;;;;;;0.87;0.83;;;2.10;99.90;;;;;;4944987;28;20217;-92
2021/01/16 04:59:49;;;;;;;1.30;1.20;;;2.10;99.90;;;;;;4946207;28;20268;-93
2021/01/16 05:02:15;;;;;;;2.17;1.97;;;2.20;99.90;;;;;;4945620;28;20229;-93
2021/01/16 05:04:45;;;;;;;1.07;1.07;;;2.20;99.90;;;;;;4931119;29;20557;-93
2021/01/16 05:07:12;;;;;;;2.80;1.40;;;2.30;99.90;;;;;;4946347;28;20268;-93
2021/01/16 05:09:40;;;;;;;1.00;1.00;;;2.30;99.90;;;;;;4926393;28;20221;-93
2021/01/16 05:12:06;;;;;;;0.73;0.73;;;2.30;99.90;;;;;;4926493;29;20221;-93
2021/01/16 05:15:15;;;;;;;1.53;1.20;;;2.30;99.90;;;;;;4942532;28;20236;-92
2021/01/16 05:17:45;;;;;;;0.80;0.77;;;2.30;99.90;;;;;;4940321;29;20328;-93
2021/01/16 05:20:12;;;;;;;1.90;1.80;;;2.30;99.90;;;;;;4926067;28;20629;-91
2021/01/16 05:22:38;;;;;;;1.47;1.37;;;2.30;99.90;;;;;;4941897;29;20203;-93
2021/01/16 05:25:07;;;;;;;1.50;1.07;;;2.30;99.90;;;;;;4911192;29;20442;-94
2021/01/16 05:27:37;;;;;;;1.33;1.33;;;2.30;99.90;;;;;;4941917;29;20212;-94
2021/01/16 05:30:10;;;;;;;2.13;1.30;;;2.40;99.90;;;;;;4941880;28;20799;-94
2021/01/16 05:32:36;;;;;;;0.67;0.67;;;2.40;99.90;;;;;;4926595;29;20231;-94
2021/01/16 05:35:21;;;;;;;2.67;1.50;;;2.40;99.90;;;;;;4942987;28;20194;-94
2021/01/16 05:37:48;;;;;;;4.47;1.73;;;2.40;99.90;;;;;;4945769;28;20742;-95
2021/01/16 05:40:15;;;;;;;4.17;2.30;;;2.40;99.90;;;;;;4944584;29;20213;-94
2021/01/16 05:42:42;;;;;;;2.73;2.53;;;2.40;99.90;;;;;;4945808;28;20217;-94
2021/01/16 05:45:10;;;;;;;3.27;2.07;;;2.40;99.90;;;;;;4944032;28;20284;-92
2021/01/16 05:47:39;;;;;;;4.13;2.30;;;2.40;99.90;;;;;;4957730;28;20236;-94
2021/01/16 05:50:06;;;;;;;3.00;2.67;;;2.30;99.90;;;;;;4962612;28;20200;-93
2021/01/16 05:52:32;;;;;;;3.63;3.33;;;2.30;99.90;;;;;;4933171;28;20196;-94
2021/01/16 05:54:59;;;;;;;4.73;3.67;;;2.30;99.90;;;;;;4945368;28;20756;-94
2021/01/16 05:57:25;;;;;;;2.57;2.13;;;2.30;99.90;;;;;;4964087;28;20899;-94
2021/01/16 05:59:59;;;;;;;5.70;4.20;;;2.20;99.90;;;;;;4946616;28;20216;-94
2021/01/16 06:02:30;;;;;;;4.73;2.83;;;2.20;99.90;;;;;;4946380;28;20208;-94
2021/01/16 06:04:56;;;;;;;4.50;3.07;;;2.10;99.90;;;;;;4964077;28;20255;-94
2021/01/16 06:07:23;;;;;;;3.03;2.83;;;2.20;99.90;;;;;;4947908;28;20767;-94
2021/01/16 06:09:53;;;;;;;1.63;1.53;;;2.20;99.90;;;;;;4946354;28;20260;-94
2021/01/16 06:12:21;;;;;;;7.17;3.03;;;2.20;99.90;;;;;;4979527;28;20226;-94
2021/01/16 06:14:48;;;;;;;2.40;2.20;;;2.20;99.90;;;;;;4962531;28;20247;-93
2021/01/16 06:17:19;;;;;;;3.50;2.77;;;2.20;99.90;;;;;;4963075;28;20686;-93
2021/01/16 06:19:47;;;;;;;3.77;3.57;;;2.20;99.90;;;;;;4964828;28;20189;-93
2021/01/16 06:22:15;;;;;;;3.73;3.47;;;2.20;99.90;;;;;;4946236;28;20225;-93
2021/01/16 06:24:49;;;;;;;2.23;2.03;;;2.20;99.90;;;;;;4962686;28;20686;-93
2021/01/16 06:27:25;;;;;;;2.73;1.63;;;2.20;99.90;;;;;;4962018;28;20221;-92
2021/01/16 06:29:57;;;;;;;3.87;2.37;;;2.20;99.90;;;;;;4977564;28;20228;-93
2021/01/16 06:32:24;;;;;;;2.37;2.17;;;2.20;99.90;;;;;;4963313;28;20355;-94
2021/01/16 06:35:05;;;;;;;3.47;3.27;;;2.20;99.90;;;;;;4963057;28;20314;-92
2021/01/16 06:37:31;;;;;;;4.00;3.20;;;2.20;99.90;;;;;;4961989;28;20357;-95
2021/01/16 06:39:58;;;;;;;6.73;3.73;;;2.10;99.90;;;;;;4961901;28;20332;-94
2021/01/16 06:42:28;;;;;;;3.30;2.37;;;2.00;99.90;;;;;;4962597;28;20224;-94
2021/01/16 06:45:10;;;;;;;5.70;3.27;;;2.00;99.90;;;;;;4961985;28;20741;-94
2021/01/16 06:47:38;;;;;;;1.63;1.53;;;2.00;99.90;;;;;;4947113;28;20241;-92
2021/01/16 06:50:08;;;;;;;4.30;3.43;;;2.00;99.90;;;;;;4943366;28;20190;-92
2021/01/16 06:52:38;;;;;;;4.00;3.23;;;2.00;99.90;;;;;;4943564;28;20197;-93
2021/01/16 06:55:06;;;;;;;4.57;3.40;;;2.00;99.90;;;;;;4940181;28;20229;-95
2021/01/16 06:57:35;;;;;;;5.30;2.90;;;2.00;99.90;;;;;;4956513;28;20221;-93
2021/01/16 07:00:06;;;;;;;4.07;3.67;;;2.00;99.90;;;;;;4926236;28;20224;-92
2021/01/16 07:02:33;;;;;;;2.67;2.47;;;2.10;99.90;;;;;;4926529;28;20373;-91
2021/01/16 07:05:00;;;;;;;5.33;3.37;;;2.10;99.90;;;;;;4958865;28;20193;-91
2021/01/16 07:07:35;;;;;;;3.97;2.97;;;2.10;99.90;;;;;;4943798;29;20221;-90
2021/01/16 07:10:10;;;;;;;2.93;2.10;;;2.00;99.90;;;;;;4942187;28;20209;-94
2021/01/16 07:12:38;;;;;;;4.00;3.63;;;2.00;99.90;;;;;;4942176;28;20236;-92
2021/01/16 07:15:05;;;;;;;1.90;1.77;;;2.00;99.90;;;;;;4941000;28;20221;-93
2021/01/16 07:17:32;;;;;;;5.03;2.47;;;2.00;99.90;;;;;;4918661;29;20292;-94
2021/01/16 07:19:59;;;;;;;4.70;4.33;;;2.00;99.90;;;;;;4941846;28;20240;-94
2021/01/16 07:22:32;;;;;;;5.53;4.27;;;2.00;99.90;;;;;;4958255;28;20236;-92
2021/01/16 07:25:01;;;;;;;2.77;2.50;;;2.10;99.90;;;;;;4942273;28;20225;-94
2021/01/16 07:27:27;;;;;;;3.33;2.70;;;2.10;99.90;;;;;;4958140;28;20232;-91
2021/01/16 07:29:57;;;;;;;4.53;2.27;;;2.10;99.90;;;;;;4925422;29;20217;-90
2021/01/16 07:32:40;;;;;;;3.60;2.57;;;2.10;99.90;;;;;;4956624;28;20209;-87
2021/01/16 07:35:14;;;;;;;3.03;1.90;;;2.10;99.90;;;;;;4939569;28;20196;-92
2021/01/16 07:37:41;;;;;;;4.23;3.97;;;2.10;99.90;;;;;;4941783;29;20220;-92
2021/01/16 07:40:15;;;;;;;3.20;2.73;;;2.10;99.90;;;;;;4941698;29;20224;-96
2021/01/16 07:42:55;;;;;;;1.87;1.57;;;2.20;99.90;;;;;;4939174;28;20713;-88
2021/01/16 07:45:27;;;;;;;2.00;1.83;;;2.10;99.90;;;;;;4939538;29;20224;-88
2021/01/16 07:48:02;;;;;;;2.13;2.03;;;2.10;99.90;;;;;;4974741;28;20709;-90
2021/01/16 07:50:30;;;;;;;3.30;2.60;;;2.10;99.90;;;;;;4963678;28;20321;-89
2021/01/16 07:53:16;;;;;;;3.80;3.50;;;2.10;99.90;;;;;;4961684;28;20198;-88
2021/01/16 07:55:46;;;;;;;3.47;3.00;;;2.10;99.90;;;;;;4981670;28;20188;-89
2021/01/16 07:58:18;;;;;;;5.20;3.67;;;2.10;99.90;;;;;;4945217;28;20255;-85
2021/01/16 08:01:10;;;;;;;6.63;3.43;;;2.20;99.90;;;;;;4957964;28;20235;-87
2021/01/16 08:03:45;;;;;;;4.20;3.73;;;2.20;99.90;;;;;;4958223;28;20227;-91
2021/01/16 08:06:42;;;;;;;4.43;3.23;;;2.20;99.90;;;;;;4978634;28;20227;-92
2021/01/16 08:09:13;;;;;;;4.07;2.67;;;2.10;99.90;;;;;;4959895;28;20303;-87
2021/01/16 08:11:50;;;;;;;1.57;1.47;;;2.10;99.90;;;;;;4960422;28;20250;-85
2021/01/16 08:14:20;;;;;;;2.33;2.13;;;2.10;99.90;;;;;;4979641;28;20289;-86
2021/01/16 08:16:56;;;;;;;2.93;2.73;;;2.10;99.90;;;;;;4981799;28;20176;-89
2021/01/16 08:19:40;;;;;;;3.33;2.80;;;2.20;99.90;;;;;;4964085;28;20231;-88
2021/01/16 08:22:16;;;;;;;3.13;2.90;;;2.20;99.90;;;;;;4980918;28;20307;-86
2021/01/16 08:25:03;;;;;;;3.43;3.13;;;2.10;99.90;;;;;;4961915;28;20233;-87
2021/01/16 08:27:30;;;;;;;1.90;1.77;;;2.10;99.90;;;;;;4962869;28;21270;-91
2021/01/16 08:29:57;;;;;;;2.20;1.83;;;2.10;99.90;;;;;;4962048;28;20212;-90
2021/01/16 08:32:23;;;;;;;2.40;2.27;;;2.10;99.90;;;;;;4947521;28;20693;-86
2021/01/16 08:34:56;;;;;;;6.20;3.93;;;2.10;99.90;;;;;;4962615;28;20303;-88
2021/01/16 08:37:39;;;;;;;1.70;1.47;;;2.10;99.90;;;;;;4979729;28;21053;-88
2021/01/16 08:40:08;;;;;;;3.03;2.83;;;2.10;99.90;;;;;;4978136;28;20287;-88
2021/01/16 08:42:48;;;;;;;4.47;3.27;;;2.20;99.90;;;;;;4961034;28;20406;-87
2021/01/16 08:45:16;;;;;;;2.73;2.53;;;2.20;99.90;;;;;;4961911;28;20219;-85
2021/01/16 08:47:59;;;;;;;3.67;2.37;;;2.30;99.90;;;;;;4979792;28;20240;-90
2021/01/16 08:50:33;;;;;;;3.13;2.93;;;2.30;99.90;;;;;;4979604;28;20215;-85
2021/01/16 08:52:59;;;;;;;2.87;2.67;;;2.30;99.90;;;;;;4962772;28;20191;-87
2021/01/16 08:55:26;;;;;;;3.60;3.30;;;2.30;99.90;;;;;;4966472;28;20196;-86
2021/01/16 08:58:10;;;;;;;3.40;2.67;;;2.40;99.90;;;;;;4965141;28;20232;-86
2021/01/16 09:00:37;;;;;;;3.20;2.77;;;2.40;99.90;;;;;;4964378;28;20211;-88
2021/01/16 09:03:20;;;;;;;4.27;2.73;;;2.40;99.90;;;;;;4948641;28;20424;-86
2021/01/16 09:05:48;;;;;;;3.30;3.00;;;2.50;99.90;;;;;;4980191;28;20223;-86
2021/01/16 09:08:25;;;;;;;5.57;3.70;;;2.50;99.90;;;;;;4981881;28;20286;-87
2021/01/16 09:10:52;;;;;;;4.00;2.50;;;2.50;99.90;;;;;;4939639;28;20203;-88
2021/01/16 09:13:29;;;;;;;4.87;4.27;;;2.50;99.90;;;;;;4963745;28;20228;-87
2021/01/16 09:15:58;;;;;;;1.50;1.47;;;2.50;99.90;;;;;;4964355;28;20232;-87
2021/01/16 09:18:26;;;;;;;3.93;2.50;;;2.50;99.90;;;;;;4979896;28;20358;-88
2021/01/16 09:20:51;;;;;;;2.57;2.30;;;2.50;99.90;;;;;;4980723;28;20718;-86
2021/01/16 09:23:27;;;;;;;4.63;2.23;;;2.50;99.90;;;;;;4960340;28;20223;-87
2021/01/16 09:26:05;;;;;;;4.10;3.73;;;2.50;99.90;;;;;;4979429;28;20198;-87
2021/01/16 09:28:57;;;;;;;2.30;1.93;;;2.60;99.90;;;;;;4981572;28;20246;-87
2021/01/16 09:31:33;;;;;;;6.33;3.07;;;2.60;99.90;;;;;;4962566;28;20219;-86
2021/01/16 09:34:07;;;;;;;7.60;3.17;;;2.60;99.90;;;;;;4961141;28;20902;-85
2021/01/16 09:36:47;;;;;;;5.40;3.33;;;2.60;99.90;;;;;;4978564;28;20230;-85
2021/01/16 09:39:22;;;;;;;2.27;2.17;;;2.50;99.90;;;;;;4961232;28;20326;-86
2021/01/16 09:41:52;;;;;;;5.67;2.73;;;2.50;99.90;;;;;;4961455;28;20293;-87
2021/01/16 09:44:47;;;;;;;8.93;4.20;;;2.50;99.90;;;;;;4960383;28;20223;-84
2021/01/16 09:47:28;;;;;;;5.37;3.53;;;2.50;99.90;;;;;;4977395;28;21611;-85
2021/01/16 09:50:00;;;;;;;5.30;3.73;;;2.50;99.90;;;;;;4964704;28;20199;-89
2021/01/16 09:52:31;;;;;;;9.33;7.23;;;2.50;99.90;;;;;;4966926;28;20196;-88
2021/01/16 09:54:57;;;;;;;7.73;6.50;;;2.50;99.90;;;;;;4964994;28;20227;-88
2021/01/16 09:57:33;;;;;;;9.07;5.03;;;2.40;99.90;;;;;;4965085;28;20294;-89
2021/01/16 10:00:10;;;;;;;5.67;4.43;;;2.50;99.90;;;;;;4939663;28;20234;-88
2021/01/16 10:02:39;;;;;;;4.67;3.37;;;2.50;99.90;;;;;;4981109;28;20223;-89
2021/01/16 10:05:09;;;;;;;7.67;3.80;;;2.40;99.90;;;;;;4983004;28;20200;-90
2021/01/16 10:07:38;;;;;;;4.60;3.93;;;2.40;99.90;;;;;;4984237;28;20204;-90
2021/01/16 10:10:17;;;;;;;4.07;3.57;;;2.40;99.90;;;;;;4983127;28;20224;-89
2021/01/16 10:12:48;;;;;;;6.63;4.47;;;2.40;99.90;;;;;;4983119;28;20700;-90
2021/01/16 10:15:18;;;;;;;7.80;4.87;;;2.30;99.90;;;;;;4964144;28;20219;-90
2021/01/16 10:17:50;;;;;;;4.47;4.00;;;2.30;99.90;;;;;;4964564;28;20247;-91
2021/01/16 10:20:17;;;;;;;4.10;3.80;;;2.40;99.90;;;;;;4966036;28;20307;-91
2021/01/16 10:22:53;;;;;;;5.07;3.70;;;2.40;99.90;;;;;;4950548;28;20586;-90
2021/01/16 10:25:36;;;;;;;5.77;5.00;;;2.40;99.90;;;;;;4966008;28;20216;-91
2021/01/16 10:28:02;;;;;;;3.47;3.17;;;2.40;99.90;;;;;;4964963;28;20216;-90
2021/01/16 10:30:33;;;;;;;6.83;5.57;;;2.50;99.90;;;;;;4964937;28;20212;-91
2021/01/16 10:32:59;;;;;;;5.40;4.93;;;2.40;99.90;;;;;;4949454;28;21082;-91
2021/01/16 10:35:30;;;;;;;5.73;3.27;;;2.40;99.90;;;;;;4964461;28;20224;-90
2021/01/16 10:38:01;;;;;;;7.00;4.93;;;2.50;99.90;;;;;;4982529;28;20226;-90
2021/01/16 10:40:29;;;;;;;7.83;4.37;;;2.50;99.90;;;;;;4950307;28;20200;-89
2021/01/16 10:42:59;;;;;;;6.27;4.60;;;2.60;99.90;;;;;;4948709;28;20322;-90
2021/01/16 10:45:32;;;;;;;5.60;4.60;;;2.60;99.90;;;;;;4965044;28;20216;-90
2021/01/16 10:48:16;;;;;;;5.20;3.47;;;2.60;99.90;;;;;;4948188;28;20270;-90
2021/01/16 10:50:45;;;;;;;6.87;4.63;;;2.60;99.90;;;;;;4982129;28;20303;-91
2021/01/16 10:53:11;;;;;;;4.27;3.40;;;2.70;99.90;;;;;;4964103;28;20278;-90
2021/01/16 10:55:54;;;;;;;7.23;5.03;;;2.70;99.90;;;;;;4982954;28;20311;-89
2021/01/16 10:58:27;;;;;;;7.57;4.70;;;2.70;99.90;;;;;;4965117;28;20314;-91
2021/01/16 11:01:00;;;;;;;4.47;4.00;;;2.70;99.90;;;;;;4979815;28;20224;-90
2021/01/16 11:03:28;;;;;;;6.17;5.33;;;2.80;99.90;;;;;;4946107;28;20685;-89
2021/01/16 11:05:56;;;;;;;8.33;5.70;;;2.80;99.90;;;;;;4960727;28;20759;-90
2021/01/16 11:08:30;;;;;;;6.93;4.43;;;2.80;99.90;;;;;;4977155;28;20317;-90
2021/01/16 11:10:56;;;;;;;8.47;4.17;;;2.90;99.90;;;;;;4958417;28;20199;-90
2021/01/16 11:13:28;;;;;;;9.57;5.37;;;2.90;99.90;;;;;;4978932;28;20188;-91
2021/01/16 11:16:16;;;;;;;6.77;6.00;;;3.00;99.90;;;;;;4979638;28;20689;-90
2021/01/16 11:18:43;;;;;;;21.87;9.47;;;3.10;99.90;;;;;;4962995;28;20318;-90
2021/01/16 11:21:11;;;;;;;10.73;5.60;;;3.20;99.90;;;;;;4963004;28;20232;-87
2021/01/16 11:23:43;;;;;;;4.70;4.27;;;3.20;99.90;;;;;;4929212;28;20228;-88
2021/01/16 11:26:13;;;;;;;5.17;2.53;;;3.30;99.90;;;;;;4961033;28;20199;-90
2021/01/16 11:28:55;;;;;;;6.67;3.73;;;3.30;99.90;;;;;;4982398;28;20267;-88
2021/01/16 11:31:23;;;;;;;5.67;5.03;;;3.40;99.90;;;;;;4981808;28;20215;-89
2021/01/16 11:34:08;;;;;;;24.53;11.47;;;3.30;99.90;;;;;;4981044;28;20450;-90
2021/01/16 11:36:55;;;;;;;8.67;6.80;;;3.40;99.90;;;;;;4963612;28;20208;-90
2021/01/16 11:40:00;;;;;;;48.27;14.87;;;3.40;99.90;;;;;;4963856;28;20232;-88
2021/01/16 11:42:53;;;;;;;49.27;15.53;;;3.50;99.90;;;;;;4963352;28;20219;-91
2021/01/16 11:45:19;;;;;;;18.90;8.40;;;3.60;99.90;;;;;;4981515;28;20282;-90
2021/01/16 11:47:54;;;;;;;11.63;7.57;;;3.70;99.90;;;;;;4982644;28;20227;-88
2021/01/16 11:50:20;;;;;;;35.07;13.90;;;3.70;99.90;;;;;;4967919;28;20345;-89
2021/01/16 11:52:47;;;;;;;4.00;3.63;;;3.60;99.90;;;;;;4986677;28;20187;-90
2021/01/16 11:55:13;;;;;;;5.43;3.80;;;3.60;99.90;;;;;;4951279;28;20338;-90
2021/01/16 11:57:41;;;;;;;5.07;3.83;;;3.60;99.90;;;;;;4968933;28;20232;-93
2021/01/16 12:00:09;;;;;;;6.33;3.83;;;3.60;99.90;;;;;;4985093;28;20216;-92
2021/01/16 12:02:35;;;;;;;1.73;1.60;;;3.60;99.90;;;;;;4984449;28;20231;-90
2021/01/16 12:05:01;;;;;;;7.43;4.20;;;3.60;99.90;;;;;;4967412;28;20303;-90
2021/01/16 12:07:27;;;;;;;4.10;2.37;;;3.60;99.90;;;;;;4986593;28;21103;-89
2021/01/16 12:09:57;;;;;;;3.87;1.97;;;3.50;99.90;;;;;;4967390;28;20732;-91
2021/01/16 12:12:30;;;;;;;2.47;1.77;;;3.50;99.90;;;;;;4983528;28;20211;-91
2021/01/16 12:14:56;;;;;;;3.67;2.17;;;3.40;99.90;;;;;;4966107;28;20708;-90
2021/01/16 12:17:27;;;;;;;4.33;2.53;;;3.50;99.90;;;;;;4945474;28;20301;-89
2021/01/16 12:19:53;;;;;;;3.23;2.63;;;3.50;99.90;;;;;;4982568;28;20224;-87
2021/01/16 12:22:22;;;;;;;7.50;3.07;;;3.40;99.90;;;;;;4931392;28;20444;-85
2021/01/16 12:24:48;;;;;;;3.90;2.87;;;3.40;99.90;;;;;;4964645;28;20223;-86
2021/01/16 12:27:15;;;;;;;4.57;3.93;;;3.40;99.90;;;;;;4964989;28;20212;-87
2021/01/16 12:29:44;;;;;;;4.23;2.53;;;3.50;99.90;;;;;;4965114;28;20250;-86
2021/01/16 12:32:12;;;;;;;2.83;2.27;;;3.40;99.90;;;;;;4982192;28;20812;-88
2021/01/16 12:34:53;;;;;;;4.50;4.10;;;3.30;99.90;;;;;;4984364;28;20180;-87
2021/01/16 12:37:29;;;;;;;4.53;3.70;;;3.30;99.90;;;;;;4965586;28;20239;-87
2021/01/16 12:39:59;;;;;;;4.10;2.10;;;3.30;99.90;;;;;;4983362;28;20568;-88
2021/01/16 12:42:26;;;;;;;4.10;3.10;;;3.30;99.90;;;;;;4963985;28;20270;-88
2021/01/16 12:45:01;;;;;;;4.60;4.20;;;3.30;99.90;;;;;;4962529;28;20228;-88
2021/01/16 12:47:28;;;;;;;4.00;3.67;;;3.30;99.90;;;;;;4963620;28;20239;-88
2021/01/16 12:49:54;;;;;;;9.33;4.43;;;3.30;99.90;;;;;;4964106;28;20329;-88
2021/01/16 12:52:25;;;;;;;8.77;6.13;;;3.30;99.90;;;;;;4950005;28;20993;-87
2021/01/16 12:55:00;;;;;;;4.43;3.50;;;3.20;99.90;;;;;;4964788;28;20220;-88
2021/01/16 12:57:40;;;;;;;3.97;3.27;;;3.30;99.90;;;;;;4980340;28;20216;-89
2021/01/16 13:00:18;;;;;;;7.17;4.60;;;3.30;99.90;;;;;;4981606;28;20642;-88
2021/01/16 13:02:47;;;;;;;3.27;2.93;;;3.30;99.90;;;;;;4963849;28;20234;-87
2021/01/16 13:05:17;;;;;;;4.37;2.57;;;3.20;99.90;;;;;;4932140;28;20314;-87
2021/01/16 13:07:44;;;;;;;6.60;3.57;;;3.10;99.90;;;;;;4940353;28;20599;-87
2021/01/16 13:10:12;;;;;;;8.90;6.23;;;3.10;99.90;;;;;;4979870;28;20238;-89
2021/01/16 13:12:41;;;;;;;7.60;5.23;;;3.10;99.90;;;;;;4980403;28;20267;-88
2021/01/16 13:15:08;;;;;;;13.23;7.93;;;3.00;99.90;;;;;;4964951;28;20708;-89